sensor_id;sensor_type;location;lat;lon;timestamp;P1;durP1;ratioP1;P2;durP2;ratioP2
56239;SDS011;42154;51.992;5.896;2023-01-31T00:01:06;20.10;;;3.88;;
56239;SDS011;42154;51.992;5.896;2023-01-31T00:03:42;16.83;;;3.63;;
56239;SDS011;42154;51.992;5.896;2023-01-31T00:06:18;15.88;;;3.58;;
56239;SDS011;42154;51.992;5.896;2023-01-31T00:08:46;15.27;;;3.33;;
56239;SDS011;42154;51.992;5.896;2023-01-31T00:11:13;19.33;;;3.67;;
56239;SDS011;42154;51.992;5.896;2023-01-31T00:13:40;14.45;;;2.70;;
56239;SDS011;42154;51.992;5.896;2023-01-31T00:16:07;17.17;;;4.53;;
56239;SDS011;42154;51.992;5.896;2023-01-31T00:18:34;23.38;;;3.97;;
56239;SDS011;42154;51.992;5.896;2023-01-31T00:21:10;12.82;;;3.20;;
56239;SDS011;42154;51.992;5.896;2023-01-31T00:23:37;16.27;;;3.35;;
56239;SDS011;42154;51.992;5.896;2023-01-31T00:26:08;11.30;;;2.63;;
56239;SDS011;42154;51.992;5.896;2023-01-31T00:28:34;15.05;;;3.05;;
56239;SDS011;42154;51.992;5.896;2023-01-31T00:30:59;17.88;;;3.45;;
56239;SDS011;42154;51.992;5.896;2023-01-31T00:33:25;14.70;;;3.25;;
56239;SDS011;42154;51.992;5.896;2023-01-31T00:35:51;11.27;;;3.00;;
56239;SDS011;42154;51.992;5.896;2023-01-31T00:38:16;12.73;;;2.97;;
56239;SDS011;42154;51.992;5.896;2023-01-31T00:40:50;13.55;;;3.35;;
56239;SDS011;42154;51.992;5.896;2023-01-31T00:43:16;18.33;;;3.65;;
56239;SDS011;42154;51.992;5.896;2023-01-31T00:45:42;11.85;;;2.38;;
56239;SDS011;42154;51.992;5.896;2023-01-31T00:48:07;16.52;;;3.15;;
56239;SDS011;42154;51.992;5.896;2023-01-31T00:50:33;16.17;;;3.45;;
56239;SDS011;42154;51.992;5.896;2023-01-31T00:52:59;13.05;;;3.35;;
56239;SDS011;42154;51.992;5.896;2023-01-31T00:55:25;14.75;;;2.60;;
56239;SDS011;42154;51.992;5.896;2023-01-31T00:57:51;13.68;;;3.00;;
56239;SDS011;42154;51.992;5.896;2023-01-31T01:00:16;14.63;;;3.17;;
56239;SDS011;42154;51.992;5.896;2023-01-31T01:02:43;14.55;;;3.30;;
56239;SDS011;42154;51.992;5.896;2023-01-31T01:05:08;13.00;;;2.80;;
56239;SDS011;42154;51.992;5.896;2023-01-31T01:07:34;11.00;;;2.78;;
56239;SDS011;42154;51.992;5.896;2023-01-31T01:10:00;14.15;;;3.17;;
56239;SDS011;42154;51.992;5.896;2023-01-31T01:12:27;13.02;;;2.80;;
56239;SDS011;42154;51.992;5.896;2023-01-31T01:14:53;13.88;;;3.60;;
56239;SDS011;42154;51.992;5.896;2023-01-31T01:17:19;17.63;;;3.40;;
56239;SDS011;42154;51.992;5.896;2023-01-31T01:19:47;15.45;;;3.10;;
56239;SDS011;42154;51.992;5.896;2023-01-31T01:22:13;17.27;;;3.25;;
56239;SDS011;42154;51.992;5.896;2023-01-31T01:24:44;14.32;;;3.40;;
56239;SDS011;42154;51.992;5.896;2023-01-31T01:27:10;17.08;;;4.15;;
56239;SDS011;42154;51.992;5.896;2023-01-31T01:29:37;16.90;;;4.05;;
56239;SDS011;42154;51.992;5.896;2023-01-31T01:32:04;14.00;;;3.70;;
56239;SDS011;42154;51.992;5.896;2023-01-31T01:34:31;12.45;;;3.38;;
56239;SDS011;42154;51.992;5.896;2023-01-31T01:36:57;13.95;;;3.55;;
56239;SDS011;42154;51.992;5.896;2023-01-31T01:39:23;14.98;;;4.05;;
56239;SDS011;42154;51.992;5.896;2023-01-31T01:41:50;17.23;;;4.03;;
56239;SDS011;42154;51.992;5.896;2023-01-31T01:52:44;14.75;;;4.05;;
56239;SDS011;42154;51.992;5.896;2023-01-31T01:55:27;15.80;;;3.95;;
56239;SDS011;42154;51.992;5.896;2023-01-31T01:58:03;12.77;;;3.90;;
56239;SDS011;42154;51.992;5.896;2023-01-31T02:00:34;16.83;;;4.20;;
56239;SDS011;42154;51.992;5.896;2023-01-31T02:03:00;14.70;;;3.72;;
56239;SDS011;42154;51.992;5.896;2023-01-31T02:05:35;11.73;;;3.30;;
56239;SDS011;42154;51.992;5.896;2023-01-31T02:08:08;12.25;;;2.83;;
56239;SDS011;42154;51.992;5.896;2023-01-31T02:13:07;12.00;;;3.60;;
56239;SDS011;42154;51.992;5.896;2023-01-31T02:15:33;12.32;;;3.33;;
56239;SDS011;42154;51.992;5.896;2023-01-31T02:17:59;12.98;;;3.67;;
56239;SDS011;42154;51.992;5.896;2023-01-31T02:20:29;11.02;;;3.20;;
56239;SDS011;42154;51.992;5.896;2023-01-31T02:51:21;13.63;;;3.17;;
56239;SDS011;42154;51.992;5.896;2023-01-31T02:54:16;13.32;;;3.55;;
56239;SDS011;42154;51.992;5.896;2023-01-31T02:56:47;15.48;;;3.78;;
56239;SDS011;42154;51.992;5.896;2023-01-31T03:01:54;15.05;;;4.00;;
56239;SDS011;42154;51.992;5.896;2023-01-31T03:04:29;22.08;;;4.47;;
56239;SDS011;42154;51.992;5.896;2023-01-31T03:07:04;11.52;;;2.83;;
56239;SDS011;42154;51.992;5.896;2023-01-31T03:09:54;18.42;;;4.70;;
56239;SDS011;42154;51.992;5.896;2023-01-31T03:15:37;13.85;;;4.25;;
56239;SDS011;42154;51.992;5.896;2023-01-31T03:18:29;13.18;;;3.50;;
56239;SDS011;42154;51.992;5.896;2023-01-31T03:21:11;13.80;;;3.20;;
56239;SDS011;42154;51.992;5.896;2023-01-31T03:23:41;13.15;;;3.55;;
56239;SDS011;42154;51.992;5.896;2023-01-31T03:26:12;16.20;;;3.60;;
56239;SDS011;42154;51.992;5.896;2023-01-31T03:28:39;14.82;;;4.03;;
56239;SDS011;42154;51.992;5.896;2023-01-31T03:31:17;16.67;;;4.20;;
56239;SDS011;42154;51.992;5.896;2023-01-31T03:33:49;9.18;;;2.58;;
56239;SDS011;42154;51.992;5.896;2023-01-31T03:36:27;19.90;;;3.90;;
56239;SDS011;42154;51.992;5.896;2023-01-31T03:39:41;20.83;;;4.47;;
56239;SDS011;42154;51.992;5.896;2023-01-31T03:42:26;19.13;;;3.95;;
56239;SDS011;42154;51.992;5.896;2023-01-31T03:45:10;16.80;;;4.30;;
56239;SDS011;42154;51.992;5.896;2023-01-31T03:47:45;13.68;;;3.70;;
56239;SDS011;42154;51.992;5.896;2023-01-31T03:58:17;11.75;;;4.28;;
56239;SDS011;42154;51.992;5.896;2023-01-31T04:00:45;21.15;;;5.65;;
56239;SDS011;42154;51.992;5.896;2023-01-31T04:05:43;16.05;;;5.70;;
56239;SDS011;42154;51.992;5.896;2023-01-31T04:08:09;22.70;;;5.78;;
56239;SDS011;42154;51.992;5.896;2023-01-31T04:10:37;17.98;;;5.45;;
56239;SDS011;42154;51.992;5.896;2023-01-31T04:13:02;19.63;;;5.80;;
56239;SDS011;42154;51.992;5.896;2023-01-31T04:15:28;19.50;;;6.97;;
56239;SDS011;42154;51.992;5.896;2023-01-31T04:17:54;21.45;;;7.15;;
56239;SDS011;42154;51.992;5.896;2023-01-31T04:20:20;18.52;;;6.68;;
56239;SDS011;42154;51.992;5.896;2023-01-31T04:22:45;21.27;;;6.82;;
56239;SDS011;42154;51.992;5.896;2023-01-31T04:25:11;23.30;;;7.63;;
56239;SDS011;42154;51.992;5.896;2023-01-31T04:27:37;17.92;;;6.22;;
56239;SDS011;42154;51.992;5.896;2023-01-31T04:30:03;23.17;;;7.53;;
56239;SDS011;42154;51.992;5.896;2023-01-31T04:32:30;18.48;;;6.85;;
56239;SDS011;42154;51.992;5.896;2023-01-31T04:34:56;20.95;;;7.00;;
56239;SDS011;42154;51.992;5.896;2023-01-31T04:37:22;21.85;;;8.43;;
56239;SDS011;42154;51.992;5.896;2023-01-31T04:39:47;21.90;;;7.63;;
56239;SDS011;42154;51.992;5.896;2023-01-31T04:42:14;22.27;;;7.28;;
56239;SDS011;42154;51.992;5.896;2023-01-31T04:44:39;22.83;;;7.47;;
56239;SDS011;42154;51.992;5.896;2023-01-31T04:47:05;27.92;;;8.25;;
56239;SDS011;42154;51.992;5.896;2023-01-31T04:49:31;21.02;;;8.40;;
56239;SDS011;42154;51.992;5.896;2023-01-31T04:51:57;18.60;;;7.90;;
56239;SDS011;42154;51.992;5.896;2023-01-31T04:54:22;21.77;;;8.23;;
56239;SDS011;42154;51.992;5.896;2023-01-31T04:56:48;22.27;;;8.63;;
56239;SDS011;42154;51.992;5.896;2023-01-31T04:59:14;27.20;;;9.38;;
56239;SDS011;42154;51.992;5.896;2023-01-31T05:01:40;20.75;;;9.38;;
56239;SDS011;42154;51.992;5.896;2023-01-31T05:04:06;25.63;;;9.40;;
56239;SDS011;42154;51.992;5.896;2023-01-31T05:06:32;24.30;;;9.00;;
56239;SDS011;42154;51.992;5.896;2023-01-31T05:08:58;24.17;;;9.68;;
56239;SDS011;42154;51.992;5.896;2023-01-31T05:11:26;19.73;;;8.40;;
56239;SDS011;42154;51.992;5.896;2023-01-31T05:13:52;23.67;;;9.07;;
56239;SDS011;42154;51.992;5.896;2023-01-31T05:16:18;19.55;;;8.45;;
56239;SDS011;42154;51.992;5.896;2023-01-31T05:18:44;29.00;;;9.68;;
56239;SDS011;42154;51.992;5.896;2023-01-31T05:21:10;26.63;;;10.23;;
56239;SDS011;42154;51.992;5.896;2023-01-31T05:23:36;27.67;;;10.35;;
56239;SDS011;42154;51.992;5.896;2023-01-31T05:26:02;27.25;;;9.75;;
56239;SDS011;42154;51.992;5.896;2023-01-31T05:28:28;27.55;;;9.40;;
56239;SDS011;42154;51.992;5.896;2023-01-31T05:30:59;24.58;;;9.43;;
56239;SDS011;42154;51.992;5.896;2023-01-31T05:33:26;25.63;;;9.43;;
56239;SDS011;42154;51.992;5.896;2023-01-31T05:35:53;23.85;;;10.70;;
56239;SDS011;42154;51.992;5.896;2023-01-31T05:38:18;20.48;;;9.98;;
56239;SDS011;42154;51.992;5.896;2023-01-31T05:40:44;26.75;;;10.13;;
56239;SDS011;42154;51.992;5.896;2023-01-31T05:43:10;27.30;;;10.38;;
56239;SDS011;42154;51.992;5.896;2023-01-31T05:45:36;27.02;;;10.80;;
56239;SDS011;42154;51.992;5.896;2023-01-31T05:48:02;20.30;;;9.32;;
56239;SDS011;42154;51.992;5.896;2023-01-31T05:50:29;26.65;;;9.50;;
56239;SDS011;42154;51.992;5.896;2023-01-31T05:53:06;20.30;;;8.50;;
56239;SDS011;42154;51.992;5.896;2023-01-31T05:55:33;28.17;;;10.07;;
56239;SDS011;42154;51.992;5.896;2023-01-31T05:57:59;33.45;;;11.90;;
56239;SDS011;42154;51.992;5.896;2023-01-31T06:00:25;23.67;;;9.63;;
56239;SDS011;42154;51.992;5.896;2023-01-31T06:02:50;24.70;;;11.00;;
56239;SDS011;42154;51.992;5.896;2023-01-31T06:05:16;29.52;;;11.35;;
56239;SDS011;42154;51.992;5.896;2023-01-31T06:07:42;27.65;;;11.15;;
56239;SDS011;42154;51.992;5.896;2023-01-31T06:10:09;28.10;;;11.05;;
56239;SDS011;42154;51.992;5.896;2023-01-31T06:12:35;31.20;;;11.48;;
56239;SDS011;42154;51.992;5.896;2023-01-31T06:15:01;20.63;;;9.50;;
56239;SDS011;42154;51.992;5.896;2023-01-31T06:17:28;26.35;;;10.70;;
56239;SDS011;42154;51.992;5.896;2023-01-31T06:19:54;29.13;;;10.88;;
56239;SDS011;42154;51.992;5.896;2023-01-31T06:22:20;29.88;;;10.73;;
56239;SDS011;42154;51.992;5.896;2023-01-31T06:24:45;27.42;;;10.45;;
56239;SDS011;42154;51.992;5.896;2023-01-31T06:27:11;25.25;;;10.20;;
56239;SDS011;42154;51.992;5.896;2023-01-31T06:29:37;31.38;;;10.35;;
56239;SDS011;42154;51.992;5.896;2023-01-31T06:32:03;29.35;;;11.90;;
56239;SDS011;42154;51.992;5.896;2023-01-31T06:34:29;28.10;;;10.80;;
56239;SDS011;42154;51.992;5.896;2023-01-31T06:36:55;31.30;;;11.00;;
56239;SDS011;42154;51.992;5.896;2023-01-31T06:39:20;28.70;;;11.20;;
56239;SDS011;42154;51.992;5.896;2023-01-31T06:41:46;24.35;;;12.05;;
56239;SDS011;42154;51.992;5.896;2023-01-31T06:44:12;32.85;;;11.75;;
56239;SDS011;42154;51.992;5.896;2023-01-31T06:46:37;24.02;;;11.45;;
56239;SDS011;42154;51.992;5.896;2023-01-31T06:49:03;22.67;;;10.18;;
56239;SDS011;42154;51.992;5.896;2023-01-31T06:51:29;29.17;;;10.75;;
56239;SDS011;42154;51.992;5.896;2023-01-31T06:53:55;30.70;;;11.88;;
56239;SDS011;42154;51.992;5.896;2023-01-31T06:56:21;29.90;;;12.07;;
56239;SDS011;42154;51.992;5.896;2023-01-31T06:58:47;21.95;;;9.50;;
56239;SDS011;42154;51.992;5.896;2023-01-31T07:01:13;30.52;;;12.25;;
56239;SDS011;42154;51.992;5.896;2023-01-31T07:03:39;24.45;;;9.95;;
56239;SDS011;42154;51.992;5.896;2023-01-31T07:06:06;26.90;;;10.70;;
56239;SDS011;42154;51.992;5.896;2023-01-31T07:08:33;25.63;;;11.13;;
56239;SDS011;42154;51.992;5.896;2023-01-31T07:10:59;28.23;;;10.85;;
56239;SDS011;42154;51.992;5.896;2023-01-31T07:13:28;27.52;;;10.15;;
56239;SDS011;42154;51.992;5.896;2023-01-31T07:15:55;20.30;;;9.40;;
56239;SDS011;42154;51.992;5.896;2023-01-31T07:18:20;23.33;;;10.55;;
56239;SDS011;42154;51.992;5.896;2023-01-31T07:20:46;27.08;;;10.18;;
56239;SDS011;42154;51.992;5.896;2023-01-31T07:23:13;30.75;;;11.23;;
56239;SDS011;42154;51.992;5.896;2023-01-31T07:25:39;30.33;;;11.05;;
56239;SDS011;42154;51.992;5.896;2023-01-31T07:28:05;25.60;;;10.90;;
56239;SDS011;42154;51.992;5.896;2023-01-31T07:30:30;19.77;;;9.85;;
56239;SDS011;42154;51.992;5.896;2023-01-31T07:32:56;30.98;;;12.45;;
56239;SDS011;42154;51.992;5.896;2023-01-31T07:35:22;24.80;;;10.48;;
56239;SDS011;42154;51.992;5.896;2023-01-31T07:37:50;27.27;;;10.95;;
56239;SDS011;42154;51.992;5.896;2023-01-31T07:40:16;22.17;;;9.48;;
56239;SDS011;42154;51.992;5.896;2023-01-31T07:42:42;21.55;;;10.93;;
56239;SDS011;42154;51.992;5.896;2023-01-31T07:45:12;30.90;;;11.35;;
56239;SDS011;42154;51.992;5.896;2023-01-31T07:50:07;26.98;;;11.05;;
56239;SDS011;42154;51.992;5.896;2023-01-31T07:52:33;29.55;;;10.85;;
56239;SDS011;42154;51.992;5.896;2023-01-31T07:54:59;25.75;;;10.75;;
56239;SDS011;42154;51.992;5.896;2023-01-31T07:57:24;22.35;;;10.88;;
56239;SDS011;42154;51.992;5.896;2023-01-31T07:59:50;24.98;;;10.63;;
56239;SDS011;42154;51.992;5.896;2023-01-31T08:02:16;27.30;;;10.25;;
56239;SDS011;42154;51.992;5.896;2023-01-31T08:05:01;27.33;;;10.25;;
56239;SDS011;42154;51.992;5.896;2023-01-31T08:07:27;23.52;;;10.35;;
56239;SDS011;42154;51.992;5.896;2023-01-31T08:09:54;22.08;;;10.20;;
56239;SDS011;42154;51.992;5.896;2023-01-31T08:12:20;22.33;;;9.68;;
56239;SDS011;42154;51.992;5.896;2023-01-31T08:14:46;22.20;;;8.73;;
56239;SDS011;42154;51.992;5.896;2023-01-31T08:17:12;25.15;;;9.98;;
56239;SDS011;42154;51.992;5.896;2023-01-31T08:19:38;24.27;;;10.13;;
56239;SDS011;42154;51.992;5.896;2023-01-31T08:22:03;19.20;;;9.05;;
56239;SDS011;42154;51.992;5.896;2023-01-31T08:24:30;22.33;;;9.27;;
56239;SDS011;42154;51.992;5.896;2023-01-31T08:26:58;20.40;;;9.07;;
56239;SDS011;42154;51.992;5.896;2023-01-31T08:29:24;22.70;;;9.88;;
56239;SDS011;42154;51.992;5.896;2023-01-31T08:31:51;26.98;;;10.63;;
56239;SDS011;42154;51.992;5.896;2023-01-31T08:34:17;25.08;;;9.45;;
56239;SDS011;42154;51.992;5.896;2023-01-31T08:36:43;26.45;;;9.48;;
56239;SDS011;42154;51.992;5.896;2023-01-31T08:39:09;28.60;;;10.15;;
56239;SDS011;42154;51.992;5.896;2023-01-31T08:41:35;18.20;;;8.85;;
56239;SDS011;42154;51.992;5.896;2023-01-31T08:44:03;23.88;;;9.38;;
56239;SDS011;42154;51.992;5.896;2023-01-31T08:46:30;25.45;;;9.95;;
56239;SDS011;42154;51.992;5.896;2023-01-31T08:48:59;27.35;;;9.52;;
56239;SDS011;42154;51.992;5.896;2023-01-31T08:51:25;24.13;;;9.15;;
56239;SDS011;42154;51.992;5.896;2023-01-31T08:53:51;22.10;;;9.80;;
56239;SDS011;42154;51.992;5.896;2023-01-31T08:56:18;28.40;;;9.20;;
56239;SDS011;42154;51.992;5.896;2023-01-31T08:58:45;19.73;;;8.25;;
56239;SDS011;42154;51.992;5.896;2023-01-31T09:01:15;18.17;;;8.80;;
56239;SDS011;42154;51.992;5.896;2023-01-31T09:03:43;21.83;;;8.27;;
56239;SDS011;42154;51.992;5.896;2023-01-31T09:06:11;22.30;;;8.13;;
56239;SDS011;42154;51.992;5.896;2023-01-31T09:08:39;18.98;;;8.02;;
56239;SDS011;42154;51.992;5.896;2023-01-31T09:11:05;22.55;;;7.72;;
56239;SDS011;42154;51.992;5.896;2023-01-31T09:13:32;26.48;;;9.70;;
56239;SDS011;42154;51.992;5.896;2023-01-31T09:15:59;29.23;;;9.75;;
56239;SDS011;42154;51.992;5.896;2023-01-31T09:18:35;20.75;;;7.85;;
56239;SDS011;42154;51.992;5.896;2023-01-31T09:21:03;21.42;;;9.27;;
56239;SDS011;42154;51.992;5.896;2023-01-31T09:23:30;22.17;;;8.63;;
56239;SDS011;42154;51.992;5.896;2023-01-31T09:25:56;22.02;;;8.20;;
56239;SDS011;42154;51.992;5.896;2023-01-31T09:28:22;17.35;;;6.60;;
56239;SDS011;42154;51.992;5.896;2023-01-31T09:30:48;19.73;;;7.47;;
56239;SDS011;42154;51.992;5.896;2023-01-31T09:33:17;24.77;;;9.40;;
56239;SDS011;42154;51.992;5.896;2023-01-31T09:35:54;31.33;;;9.75;;
56239;SDS011;42154;51.992;5.896;2023-01-31T09:38:24;22.15;;;8.20;;
56239;SDS011;42154;51.992;5.896;2023-01-31T09:40:50;19.42;;;8.32;;
56239;SDS011;42154;51.992;5.896;2023-01-31T09:43:18;25.27;;;7.78;;
56239;SDS011;42154;51.992;5.896;2023-01-31T09:45:48;20.52;;;7.97;;
56239;SDS011;42154;51.992;5.896;2023-01-31T09:48:18;28.08;;;8.20;;
56239;SDS011;42154;51.992;5.896;2023-01-31T09:50:51;20.05;;;7.75;;
56239;SDS011;42154;51.992;5.896;2023-01-31T09:53:21;21.80;;;7.82;;
56239;SDS011;42154;51.992;5.896;2023-01-31T10:04:19;17.15;;;6.85;;
56239;SDS011;42154;51.992;5.896;2023-01-31T10:06:55;20.58;;;7.80;;
56239;SDS011;42154;51.992;5.896;2023-01-31T10:12:09;20.35;;;7.55;;
56239;SDS011;42154;51.992;5.896;2023-01-31T10:14:46;17.13;;;6.38;;
56239;SDS011;42154;51.992;5.896;2023-01-31T10:19:53;17.90;;;6.20;;
56239;SDS011;42154;51.992;5.896;2023-01-31T10:22:42;15.90;;;6.20;;
56239;SDS011;42154;51.992;5.896;2023-01-31T10:30:55;20.05;;;6.45;;
56239;SDS011;42154;51.992;5.896;2023-01-31T10:35:53;21.38;;;5.97;;
56239;SDS011;42154;51.992;5.896;2023-01-31T10:38:31;17.48;;;5.70;;
56239;SDS011;42154;51.992;5.896;2023-01-31T10:41:16;20.88;;;7.10;;
56239;SDS011;42154;51.992;5.896;2023-01-31T10:43:48;20.60;;;7.28;;
56239;SDS011;42154;51.992;5.896;2023-01-31T10:46:31;21.92;;;6.68;;
56239;SDS011;42154;51.992;5.896;2023-01-31T10:48:57;23.50;;;7.63;;
56239;SDS011;42154;51.992;5.896;2023-01-31T10:56:30;21.58;;;7.43;;
56239;SDS011;42154;51.992;5.896;2023-01-31T10:58:57;15.68;;;6.78;;
56239;SDS011;42154;51.992;5.896;2023-01-31T11:01:26;16.00;;;7.28;;
56239;SDS011;42154;51.992;5.896;2023-01-31T11:03:53;19.88;;;7.43;;
56239;SDS011;42154;51.992;5.896;2023-01-31T11:06:22;18.88;;;7.53;;
56239;SDS011;42154;51.992;5.896;2023-01-31T11:08:49;18.90;;;8.15;;
56239;SDS011;42154;51.992;5.896;2023-01-31T11:11:27;18.48;;;8.02;;
56239;SDS011;42154;51.992;5.896;2023-01-31T11:13:55;21.40;;;8.50;;
56239;SDS011;42154;51.992;5.896;2023-01-31T11:16:32;19.60;;;7.63;;
56239;SDS011;42154;51.992;5.896;2023-01-31T11:19:01;18.48;;;8.73;;
56239;SDS011;42154;51.992;5.896;2023-01-31T11:21:35;20.58;;;8.85;;
56239;SDS011;42154;51.992;5.896;2023-01-31T11:24:06;19.33;;;8.82;;
56239;SDS011;42154;51.992;5.896;2023-01-31T11:26:41;17.55;;;7.93;;
56239;SDS011;42154;51.992;5.896;2023-01-31T11:29:17;21.13;;;8.70;;
56239;SDS011;42154;51.992;5.896;2023-01-31T11:31:48;25.10;;;9.63;;
56239;SDS011;42154;51.992;5.896;2023-01-31T11:36:43;21.45;;;9.05;;
56239;SDS011;42154;51.992;5.896;2023-01-31T11:39:23;23.15;;;9.30;;
56239;SDS011;42154;51.992;5.896;2023-01-31T11:41:51;21.42;;;9.55;;
56239;SDS011;42154;51.992;5.896;2023-01-31T11:44:18;21.75;;;8.52;;
56239;SDS011;42154;51.992;5.896;2023-01-31T11:49:47;15.63;;;7.80;;
56239;SDS011;42154;51.992;5.896;2023-01-31T11:52:14;30.58;;;9.57;;
56239;SDS011;42154;51.992;5.896;2023-01-31T11:54:44;16.55;;;7.72;;
56239;SDS011;42154;51.992;5.896;2023-01-31T11:57:15;17.40;;;7.93;;
56239;SDS011;42154;51.992;5.896;2023-01-31T11:59:46;20.10;;;9.55;;
56239;SDS011;42154;51.992;5.896;2023-01-31T12:02:21;20.98;;;8.10;;
56239;SDS011;42154;51.992;5.896;2023-01-31T12:04:49;20.83;;;7.07;;
56239;SDS011;42154;51.992;5.896;2023-01-31T12:07:22;19.60;;;7.57;;
56239;SDS011;42154;51.992;5.896;2023-01-31T12:10:21;20.33;;;6.80;;
56239;SDS011;42154;51.992;5.896;2023-01-31T12:13:16;19.10;;;6.65;;
56239;SDS011;42154;51.992;5.896;2023-01-31T12:15:55;15.35;;;6.75;;
56239;SDS011;42154;51.992;5.896;2023-01-31T12:18:39;23.10;;;7.78;;
56239;SDS011;42154;51.992;5.896;2023-01-31T12:21:15;18.35;;;7.65;;
56239;SDS011;42154;51.992;5.896;2023-01-31T12:26:54;18.83;;;6.88;;
56239;SDS011;42154;51.992;5.896;2023-01-31T12:29:29;25.55;;;7.10;;
56239;SDS011;42154;51.992;5.896;2023-01-31T12:32:14;14.70;;;6.43;;
56239;SDS011;42154;51.992;5.896;2023-01-31T12:43:04;14.70;;;7.03;;
56239;SDS011;42154;51.992;5.896;2023-01-31T12:57:29;11.43;;;5.18;;
56239;SDS011;42154;51.992;5.896;2023-01-31T13:08:32;13.85;;;6.18;;
56239;SDS011;42154;51.992;5.896;2023-01-31T13:11:05;9.33;;;5.33;;
56239;SDS011;42154;51.992;5.896;2023-01-31T13:13:42;11.38;;;5.68;;
56239;SDS011;42154;51.992;5.896;2023-01-31T13:16:19;11.68;;;6.03;;
56239;SDS011;42154;51.992;5.896;2023-01-31T13:18:49;12.85;;;6.40;;
56239;SDS011;42154;51.992;5.896;2023-01-31T13:21:25;15.32;;;6.82;;
56239;SDS011;42154;51.992;5.896;2023-01-31T13:24:00;14.73;;;6.47;;
56239;SDS011;42154;51.992;5.896;2023-01-31T13:26:37;15.23;;;7.55;;
56239;SDS011;42154;51.992;5.896;2023-01-31T13:29:43;15.20;;;6.47;;
56239;SDS011;42154;51.992;5.896;2023-01-31T13:34:52;16.15;;;7.28;;
56239;SDS011;42154;51.992;5.896;2023-01-31T13:37:23;22.27;;;7.97;;
56239;SDS011;42154;51.992;5.896;2023-01-31T13:39:55;13.23;;;6.78;;
56239;SDS011;42154;51.992;5.896;2023-01-31T13:42:25;19.27;;;7.28;;
56239;SDS011;42154;51.992;5.896;2023-01-31T13:44:52;12.85;;;6.38;;
56239;SDS011;42154;51.992;5.896;2023-01-31T13:47:23;17.63;;;7.93;;
56239;SDS011;42154;51.992;5.896;2023-01-31T13:49:55;13.88;;;7.03;;
56239;SDS011;42154;51.992;5.896;2023-01-31T13:52:30;19.05;;;7.85;;
56239;SDS011;42154;51.992;5.896;2023-01-31T13:55:11;17.50;;;8.27;;
56239;SDS011;42154;51.992;5.896;2023-01-31T13:57:45;16.45;;;7.80;;
56239;SDS011;42154;51.992;5.896;2023-01-31T14:00:34;18.58;;;8.13;;
56239;SDS011;42154;51.992;5.896;2023-01-31T14:03:04;20.52;;;7.88;;
56239;SDS011;42154;51.992;5.896;2023-01-31T14:11:31;21.17;;;7.82;;
56239;SDS011;42154;51.992;5.896;2023-01-31T14:19:04;20.93;;;8.63;;
56239;SDS011;42154;51.992;5.896;2023-01-31T14:21:43;21.25;;;8.25;;
56239;SDS011;42154;51.992;5.896;2023-01-31T14:25:05;24.98;;;7.25;;
56239;SDS011;42154;51.992;5.896;2023-01-31T14:27:28;20.33;;;7.35;;
56239;SDS011;42154;51.992;5.896;2023-01-31T14:33:00;20.30;;;8.02;;
56239;SDS011;42154;51.992;5.896;2023-01-31T14:38:18;15.10;;;7.05;;
56239;SDS011;42154;51.992;5.896;2023-01-31T14:46:19;18.15;;;7.25;;
56239;SDS011;42154;51.992;5.896;2023-01-31T14:57:40;16.30;;;4.57;;
56239;SDS011;42154;51.992;5.896;2023-01-31T15:00:45;17.17;;;5.55;;
56239;SDS011;42154;51.992;5.896;2023-01-31T15:03:06;20.73;;;5.70;;
56239;SDS011;42154;51.992;5.896;2023-01-31T15:05:46;15.55;;;4.57;;
56239;SDS011;42154;51.992;5.896;2023-01-31T15:16:09;15.48;;;4.13;;
56239;SDS011;42154;51.992;5.896;2023-01-31T15:18:49;16.33;;;4.43;;
56239;SDS011;42154;51.992;5.896;2023-01-31T15:23:56;16.80;;;4.32;;
56239;SDS011;42154;51.992;5.896;2023-01-31T15:26:24;11.55;;;3.15;;
56239;SDS011;42154;51.992;5.896;2023-01-31T15:28:53;10.70;;;2.75;;
56239;SDS011;42154;51.992;5.896;2023-01-31T15:31:35;16.63;;;3.50;;
56239;SDS011;42154;51.992;5.896;2023-01-31T15:34:12;16.05;;;2.88;;
56239;SDS011;42154;51.992;5.896;2023-01-31T15:36:44;12.30;;;3.08;;
56239;SDS011;42154;51.992;5.896;2023-01-31T15:39:39;14.20;;;3.60;;
56239;SDS011;42154;51.992;5.896;2023-01-31T15:42:19;7.72;;;2.45;;
56239;SDS011;42154;51.992;5.896;2023-01-31T15:44:48;14.23;;;3.05;;
56239;SDS011;42154;51.992;5.896;2023-01-31T15:47:21;9.05;;;2.45;;
56239;SDS011;42154;51.992;5.896;2023-01-31T15:49:47;10.38;;;2.20;;
56239;SDS011;42154;51.992;5.896;2023-01-31T15:52:14;10.27;;;2.33;;
56239;SDS011;42154;51.992;5.896;2023-01-31T15:54:57;14.00;;;3.25;;
56239;SDS011;42154;51.992;5.896;2023-01-31T15:57:27;12.50;;;2.83;;
56239;SDS011;42154;51.992;5.896;2023-01-31T16:00:00;11.00;;;2.72;;
56239;SDS011;42154;51.992;5.896;2023-01-31T16:02:32;11.55;;;2.33;;
56239;SDS011;42154;51.992;5.896;2023-01-31T16:04:58;10.88;;;2.80;;
56239;SDS011;42154;51.992;5.896;2023-01-31T16:07:25;10.63;;;2.58;;
56239;SDS011;42154;51.992;5.896;2023-01-31T16:09:56;16.15;;;4.22;;
56239;SDS011;42154;51.992;5.896;2023-01-31T16:12:26;15.15;;;3.28;;
56239;SDS011;42154;51.992;5.896;2023-01-31T16:14:54;12.30;;;2.70;;
56239;SDS011;42154;51.992;5.896;2023-01-31T16:17:26;12.73;;;2.53;;
56239;SDS011;42154;51.992;5.896;2023-01-31T16:19:52;10.27;;;3.08;;
56239;SDS011;42154;51.992;5.896;2023-01-31T16:22:26;9.93;;;2.53;;
56239;SDS011;42154;51.992;5.896;2023-01-31T16:25:00;12.40;;;2.70;;
56239;SDS011;42154;51.992;5.896;2023-01-31T16:27:37;10.15;;;2.40;;
56239;SDS011;42154;51.992;5.896;2023-01-31T16:32:42;12.85;;;2.88;;
56239;SDS011;42154;51.992;5.896;2023-01-31T16:35:21;14.95;;;3.25;;
56239;SDS011;42154;51.992;5.896;2023-01-31T16:37:57;14.35;;;2.95;;
56239;SDS011;42154;51.992;5.896;2023-01-31T16:43:18;13.60;;;2.67;;
56239;SDS011;42154;51.992;5.896;2023-01-31T16:45:57;15.10;;;3.17;;
56239;SDS011;42154;51.992;5.896;2023-01-31T16:48:25;13.55;;;2.47;;
56239;SDS011;42154;51.992;5.896;2023-01-31T16:50:57;11.05;;;2.20;;
56239;SDS011;42154;51.992;5.896;2023-01-31T16:53:26;13.15;;;2.90;;
56239;SDS011;42154;51.992;5.896;2023-01-31T16:58:42;9.38;;;2.55;;
56239;SDS011;42154;51.992;5.896;2023-01-31T17:01:13;13.90;;;2.80;;
56239;SDS011;42154;51.992;5.896;2023-01-31T17:03:41;15.73;;;3.05;;
56239;SDS011;42154;51.992;5.896;2023-01-31T17:06:08;11.35;;;3.00;;
56239;SDS011;42154;51.992;5.896;2023-01-31T17:08:42;12.88;;;3.35;;
56239;SDS011;42154;51.992;5.896;2023-01-31T17:11:09;14.18;;;3.00;;
56239;SDS011;42154;51.992;5.896;2023-01-31T17:13:36;16.38;;;3.40;;
56239;SDS011;42154;51.992;5.896;2023-01-31T17:16:11;13.38;;;3.40;;
56239;SDS011;42154;51.992;5.896;2023-01-31T17:18:38;13.18;;;2.88;;
56239;SDS011;42154;51.992;5.896;2023-01-31T17:21:03;14.27;;;3.67;;
56239;SDS011;42154;51.992;5.896;2023-01-31T17:23:30;16.92;;;3.55;;
56239;SDS011;42154;51.992;5.896;2023-01-31T17:25:56;13.27;;;2.63;;
56239;SDS011;42154;51.992;5.896;2023-01-31T17:28:21;16.17;;;3.80;;
56239;SDS011;42154;51.992;5.896;2023-01-31T17:30:47;13.40;;;2.85;;
56239;SDS011;42154;51.992;5.896;2023-01-31T17:33:13;10.23;;;3.17;;
56239;SDS011;42154;51.992;5.896;2023-01-31T17:35:40;18.08;;;3.97;;
56239;SDS011;42154;51.992;5.896;2023-01-31T17:38:09;18.67;;;4.53;;
56239;SDS011;42154;51.992;5.896;2023-01-31T17:40:36;17.08;;;3.83;;
56239;SDS011;42154;51.992;5.896;2023-01-31T17:43:03;16.60;;;3.85;;
56239;SDS011;42154;51.992;5.896;2023-01-31T17:45:30;11.75;;;3.67;;